Meriden, Connecticut
Current Conditions -  °F | °C
As of 5:53 AM on Saturday 20 Dec 2014 (Local Time) from KMMK Reporting Station
Clear Clear  
Wind Chill: 26°   Ceiling: Unl
Heat Index: 26°   Visibility: 10mi
Dew Point: 19°   Wind: 3mph
Humidity: 75%   Direction: 10°N
Pressure: 30.25"   Gusts: NA
Location:  41.54°N, 72.8°W
Report Text: KMMK 201053Z AUTO 01003KT 10SM CLR M03/M07 A3025 RMK AO2 SLP245 T10331072 TSNO
Loading
Personal Weather Stations






























Interactive Weather Map New forecast layout! Learn more

10-Day Weather Forecast

Advertisements
Track Severe Weather on mobile